createdAt,value
2023-03-08T00:00:29.511Z,58.29
2023-03-08T00:05:33.204Z,58.44
2023-03-08T00:10:34.766Z,58.62
2023-03-08T00:15:38.153Z,58.63
2023-03-08T00:20:39.673Z,58.81
2023-03-08T00:25:41.191Z,58.94
2023-03-08T00:30:42.686Z,59.04
2023-03-08T00:35:44.276Z,59.48
2023-03-08T00:40:45.830Z,59.50
2023-03-08T00:45:48.779Z,60.25
2023-03-08T00:50:52.206Z,60.19
2023-03-08T00:55:58.641Z,60.65
2023-03-08T01:01:01.282Z,60.50
2023-03-08T01:06:09.577Z,60.88
2023-03-08T01:11:23.941Z,60.63
2023-03-08T01:16:31.484Z,60.77
2023-03-08T01:21:33.657Z,60.78
2023-03-08T01:26:35.229Z,61.13
2023-03-08T01:31:36.931Z,61.55
2023-03-08T01:36:38.510Z,61.37
2023-03-08T01:41:40.062Z,61.64
2023-03-08T01:46:41.862Z,62.30
2023-03-08T01:52:09.802Z,61.81
2023-03-08T01:57:17.504Z,62.58
2023-03-08T02:02:28.253Z,62.63
2023-03-08T02:07:30.657Z,62.97
2023-03-08T02:12:33.965Z,62.94
2023-03-08T02:17:38.526Z,62.24
2023-03-08T02:22:41.772Z,62.48
2023-03-08T02:27:44.208Z,62.74
2023-03-08T02:32:45.884Z,62.56
2023-03-08T02:37:47.579Z,62.02
2023-03-08T02:42:50.691Z,62.45
2023-03-08T02:47:53.352Z,62.17
2023-03-08T02:52:55.315Z,61.97
2023-03-08T02:57:56.938Z,62.12
2023-03-08T03:02:58.638Z,61.98
2023-03-08T03:08:02.347Z,61.75
2023-03-08T03:13:06.300Z,61.81
2023-03-08T03:18:07.928Z,62.07
2023-03-08T03:23:09.511Z,62.36
2023-03-08T03:28:19.198Z,62.39
2023-03-08T03:33:21.296Z,62.88
2023-03-08T03:38:23.510Z,62.57
2023-03-08T03:43:25.129Z,62.74
2023-03-08T03:48:27.488Z,62.83
2023-03-08T03:53:30.664Z,62.65
2023-03-08T03:58:32.686Z,62.53
2023-03-08T04:03:34.616Z,62.79
2023-03-08T04:08:42.280Z,62.63
2023-03-08T04:13:46.990Z,62.80
2023-03-08T04:18:52.875Z,62.88
2023-03-08T04:23:55.041Z,62.96
2023-03-08T04:28:57.476Z,62.92
2023-03-08T04:34:02.418Z,63.18
2023-03-08T04:39:04.297Z,63.12
2023-03-08T04:44:06.297Z,62.80
2023-03-08T04:49:15.657Z,62.28
2023-03-08T04:54:21.198Z,62.93
2023-03-08T04:59:28.862Z,63.62
2023-03-08T05:04:33.289Z,62.94
2023-03-08T05:09:35.390Z,63.23
2023-03-08T05:14:37.262Z,63.64
2023-03-08T05:19:38.878Z,63.73
2023-03-08T05:24:41.700Z,63.81
2023-03-08T05:29:46.120Z,64.24
2023-03-08T05:34:48.641Z,64.44
2023-03-08T05:39:58.372Z,64.72
2023-03-08T05:45:00.152Z,64.04
2023-03-08T05:50:05.808Z,64.57
2023-03-08T05:55:11.074Z,64.39
2023-03-08T06:00:14.726Z,64.84
2023-03-08T06:05:23.882Z,64.99
2023-03-08T06:10:28.874Z,65.38
2023-03-08T06:15:30.580Z,65.77
2023-03-08T06:20:32.972Z,65.32
2023-03-08T06:25:35.253Z,65.80
2023-03-08T06:30:37.179Z,65.71
2023-03-08T06:35:39.880Z,66.26
2023-03-08T06:40:41.489Z,67.20
2023-03-08T06:45:43.142Z,68.14
2023-03-08T06:50:45.239Z,69.09
2023-03-08T06:55:47.164Z,70.92
2023-03-08T07:00:49.279Z,72.44
2023-03-08T07:05:50.817Z,73.61
2023-03-08T07:10:52.544Z,74.63
2023-03-08T07:15:54.201Z,75.61
2023-03-08T07:20:56.628Z,76.03
2023-03-08T07:25:58.257Z,76.38
2023-03-08T07:31:00.467Z,77.09
2023-03-08T07:36:04.599Z,77.27
2023-03-08T07:41:06.281Z,77.76
2023-03-08T07:46:07.812Z,77.81
2023-03-08T07:51:10.318Z,78.83
2023-03-08T07:56:12.014Z,79.89
2023-03-08T08:01:14.687Z,80.53
2023-03-08T08:06:17.651Z,81.30
2023-03-08T08:11:22.508Z,83.53
2023-03-08T08:16:24.261Z,84.51
2023-03-08T08:21:27.177Z,85.96
2023-03-08T08:26:29.093Z,87.06
2023-03-08T08:31:33.306Z,88.19
2023-03-08T08:36:35.098Z,90.13
2023-03-08T08:41:36.742Z,90.00
2023-03-08T08:46:38.275Z,92.15
2023-03-08T08:51:39.842Z,92.31
2023-03-08T08:56:43.151Z,92.10
2023-03-08T09:01:44.906Z,93.94
2023-03-08T09:06:47.300Z,94.81
2023-03-08T09:11:54.981Z,96.31
2023-03-08T09:16:57.357Z,97.08
2023-03-08T09:21:59.067Z,97.25
2023-03-08T09:27:00.684Z,96.79
2023-03-08T09:32:02.280Z,96.98
2023-03-08T09:37:05.822Z,97.01
2023-03-08T09:42:20.577Z,96.66
2023-03-08T09:47:51.587Z,96.71
2023-03-08T09:53:16.534Z,95.66
2023-03-08T09:58:40.713Z,95.12
2023-03-08T10:04:09.888Z,94.84
2023-03-08T10:09:34.454Z,94.67
2023-03-08T10:14:40.408Z,95.03
2023-03-08T10:19:53.182Z,94.62
2023-03-08T10:25:01.972Z,94.13
2023-03-08T10:30:16.977Z,94.52
2023-03-08T10:35:30.118Z,94.75
2023-03-08T10:40:31.756Z,94.94
2023-03-08T10:45:33.629Z,96.30
2023-03-08T10:50:36.937Z,97.07
2023-03-08T10:55:44.282Z,96.60
2023-03-08T11:00:54.354Z,97.05
2023-03-08T11:06:05.949Z,96.90
2023-03-08T11:11:10.244Z,98.97
2023-03-08T11:16:53.373Z,99.01
2023-03-08T11:22:05.085Z,97.68
2023-03-08T11:27:06.620Z,96.58
2023-03-08T11:32:14.186Z,94.23
2023-03-08T11:37:59.754Z,93.45
2023-03-08T11:43:18.378Z,92.33
2023-03-08T11:48:34.214Z,91.30
2023-03-08T11:53:54.703Z,90.79
2023-03-08T11:59:05.441Z,90.04
2023-03-08T12:04:17.367Z,89.38
2023-03-08T12:09:48.806Z,88.68
2023-03-08T12:15:00.348Z,87.64
2023-03-08T12:20:08.171Z,86.83
2023-03-08T12:25:20.784Z,87.00
2023-03-08T12:30:33.640Z,85.27
2023-03-08T12:35:37.173Z,85.28
2023-03-08T12:40:47.508Z,84.45
2023-03-08T12:46:09.676Z,84.17
2023-03-08T12:51:17.156Z,83.66
2023-03-08T12:56:34.373Z,83.16
2023-03-08T13:01:38.216Z,82.97
2023-03-08T13:06:51.636Z,82.41
2023-03-08T13:12:12.074Z,82.16
2023-03-08T13:17:32.371Z,81.41
2023-03-08T13:22:53.062Z,81.33
2023-03-08T13:28:11.462Z,81.82
2023-03-08T13:33:15.859Z,83.14
2023-03-08T13:38:22.073Z,86.19
2023-03-08T13:43:26.482Z,90.11
2023-03-08T13:48:36.110Z,92.39
2023-03-08T13:53:40.260Z,93.67
2023-03-08T13:58:46.701Z,94.58
2023-03-08T14:03:49.475Z,95.92
2023-03-08T14:08:53.562Z,96.03
2023-03-08T14:13:57.024Z,98.44
2023-03-08T14:19:21.800Z,99.24
2023-03-08T14:24:26.896Z,100.00
2023-03-08T14:29:30.520Z,100.00
2023-03-08T14:34:36.414Z,100.00
2023-03-08T14:39:41.656Z,100.00
2023-03-08T14:44:51.649Z,100.00
2023-03-08T14:49:59.450Z,100.00
2023-03-08T14:55:03.336Z,100.00
2023-03-08T15:00:14.540Z,100.00
2023-03-08T15:05:28.319Z,99.69
2023-03-08T15:10:37.355Z,97.23
2023-03-08T15:15:38.909Z,96.64
2023-03-08T15:20:45.016Z,95.23
2023-03-08T15:25:46.546Z,94.34
2023-03-08T15:30:54.596Z,93.63
2023-03-08T15:35:56.355Z,93.07
2023-03-08T15:40:57.906Z,92.54
2023-03-08T15:45:59.518Z,92.08
2023-03-08T15:51:01.198Z,91.12
2023-03-08T15:56:05.117Z,90.89
2023-03-08T16:01:07.157Z,90.33
2023-03-08T16:06:13.206Z,90.89
2023-03-08T16:11:17.384Z,89.95
2023-03-08T16:16:20.064Z,89.52
2023-03-08T16:21:21.608Z,89.09
2023-03-08T16:26:24.205Z,89.40
2023-03-08T16:31:25.767Z,88.54
2023-03-08T16:36:27.267Z,88.12
2023-03-08T16:41:30.075Z,88.02
2023-03-08T16:46:32.346Z,87.92
2023-03-08T16:51:37.303Z,87.78
2023-03-08T16:56:43.408Z,87.00
2023-03-08T17:01:47.301Z,87.52
2023-03-08T17:06:49.802Z,87.04
2023-03-08T17:11:51.322Z,86.30
2023-03-08T17:16:52.901Z,85.96
2023-03-08T17:21:54.536Z,85.25
2023-03-08T17:26:56.124Z,85.21
2023-03-08T17:31:57.660Z,85.61
2023-03-08T17:36:59.183Z,85.02
2023-03-08T17:42:00.672Z,84.88
2023-03-08T17:47:02.210Z,84.52
2023-03-08T17:52:03.837Z,84.94
2023-03-08T17:57:05.407Z,84.92
2023-03-08T18:02:07.019Z,87.92
2023-03-08T18:07:08.558Z,92.09
2023-03-08T18:12:10.208Z,93.01
2023-03-08T18:17:12.530Z,93.98
2023-03-08T18:22:15.667Z,92.65
2023-03-08T18:27:17.335Z,94.83
2023-03-08T18:32:18.978Z,97.13
2023-03-08T18:37:21.626Z,100.00
2023-03-08T18:42:23.243Z,100.00
2023-03-08T18:47:24.854Z,100.00
2023-03-08T18:52:26.403Z,100.00
2023-03-08T18:57:27.955Z,100.00
2023-03-08T19:02:29.753Z,100.00
2023-03-08T19:07:31.379Z,100.00
2023-03-08T19:12:33.696Z,100.00
2023-03-08T19:17:35.260Z,100.00
2023-03-08T19:22:36.857Z,100.00
2023-03-08T19:27:38.362Z,100.00
2023-03-08T19:32:42.493Z,100.00
2023-03-08T19:37:44.214Z,100.00
2023-03-08T19:42:45.767Z,100.00
2023-03-08T19:47:47.281Z,100.00
2023-03-08T19:52:48.850Z,100.00
2023-03-08T19:57:50.364Z,100.00
2023-03-08T20:02:51.903Z,100.00
2023-03-08T20:07:53.424Z,100.00
2023-03-08T20:12:54.958Z,100.00
2023-03-08T20:17:56.582Z,100.00
2023-03-08T20:22:58.114Z,100.00
2023-03-08T20:27:59.603Z,100.00
2023-03-08T20:33:01.130Z,100.00
2023-03-08T20:38:02.728Z,100.00
2023-03-08T20:43:04.346Z,100.00
2023-03-08T20:48:05.966Z,100.00
2023-03-08T20:53:07.463Z,100.00
2023-03-08T20:58:08.977Z,100.00
2023-03-08T21:03:10.656Z,100.00
2023-03-08T21:08:12.161Z,100.00
2023-03-08T21:13:13.889Z,100.00
2023-03-08T21:18:15.416Z,100.00
2023-03-08T21:23:21.284Z,100.00
2023-03-08T21:28:22.935Z,100.00
2023-03-08T21:33:24.447Z,100.00
2023-03-08T21:38:25.982Z,100.00
2023-03-08T21:43:27.473Z,100.00
2023-03-08T21:48:28.957Z,100.00
2023-03-08T21:53:30.512Z,100.00
2023-03-08T21:58:32.025Z,100.00
2023-03-08T22:03:34.715Z,100.00
2023-03-08T22:08:36.290Z,100.00
2023-03-08T22:13:37.790Z,100.00
2023-03-08T22:18:39.816Z,100.00
2023-03-08T22:23:41.330Z,100.00
2023-03-08T22:28:42.975Z,100.00
2023-03-08T22:33:45.299Z,100.00
2023-03-08T22:38:47.213Z,100.00
2023-03-08T22:43:49.588Z,100.00
2023-03-08T22:48:52.524Z,100.00
2023-03-08T22:53:54.071Z,100.00
2023-03-08T22:58:56.090Z,100.00
2023-03-08T23:03:59.521Z,100.00
2023-03-08T23:09:08.897Z,100.00
2023-03-08T23:14:11.450Z,100.00
2023-03-08T23:19:18.547Z,100.00
2023-03-08T23:24:20.256Z,100.00
2023-03-08T23:29:23.881Z,100.00
2023-03-08T23:34:25.420Z,100.00
2023-03-08T23:39:26.991Z,100.00
2023-03-08T23:44:28.683Z,100.00
2023-03-08T23:49:30.315Z,100.00
2023-03-08T23:54:31.807Z,100.00
2023-03-08T23:59:33.355Z,100.00
